Aérodrome :
LOGIN :

S'inscrire | Disclaimer

   EN    FR    IT 

 










Légende :    VFR   VFR Marginal   IFR   IFR Intensif   IFR Très Intensif
Visi : 
Plafond : 
>= 8 km
>= 3000ft
5 à 8 km
1000 à 3000 ft
1500m à 5 km
500 à 1000 ft
800 à 1500m
200 à 500 ft
< 800m
< 200 ft
Symboles :   Orages  Brouillard  Fortes neiges  Fortes précipitations  Vent > 20 kt
SIGMETs :   Divers  Orages  Givrage  Turbulence  Onde Orograph.  Cendres Volcan.






- Altitude de l'aérodrome : 412 ft
- Code IATA : ORE


LFOJ - Orleans

DERNIER METAR :
  • 291130Z AUTO 18012KT 9999 OVC005 09/09 Q1010 TEMPO 3000 -RADZ

METARs EXPIRÉS :
  • 291100Z AUTO 18011KT 9999 OVC005 09/08 Q1010 TEMPO 3000 -RADZ
  • 291030Z AUTO 18012KT 9999 OVC004 09/08 Q1010 TEMPO 3000 -RADZ
  • 291000Z AUTO 18011KT 9999 OVC004 09/08 Q1011 TEMPO 3000 -RADZ
  • 290930Z AUTO 18011KT 9999 OVC004 08/08 Q1011 TEMPO 3000 -RADZ
  • 290900Z AUTO 18011KT 9999 OVC004 08/08 Q1012 TEMPO 3000 -RADZ
  • 290830Z AUTO 18011KT 3800 BR OVC003 08/08 Q1012 NOSIG
  • 290800Z AUTO 17012KT 3600 BR OVC003 08/08 Q1012 NOSIG
  • 290730Z AUTO 17012KT 4200 BR OVC003 07/07 Q1013 NOSIG
  • 290700Z AUTO 17010KT 3800 BR OVC003 07/07 Q1013 NOSIG

TAF TAF LFOJ
Valide du 29 à 09h jusqu'au 01 à 09h UTC


290800Z 2909/0109 17010KT 6000 OVC003 TX10/2915Z TN03/0103Z
TEMPO 2909/2914 3000 -RADZ
BECMG 2914/2917 BKN012
TEMPO 2922/0102 30015G25KT 3000 -RADZ BKN005
PROB40
TEMPO 0108/0109 18020G35KT



MET'MAP, la Météo Aéronautique d'un coup d'oeil ! - Copyright ORBIFLY Décembre 2007 - Disclaimer

ORBIFLY MET'MAP TEAM :

Programmation & Développement : Alexandra Zaïnal
Sur une idée originale de : Baudouin d'Aumeries
Soutien technique & logistique : Manuel Goepfert
Assistance : Marc-Olivier Méhu




SOURCES & CREDITS :

   NOAA